Terminal Aerodrome Forecast
Issued by NWS

Home | Current Version | Previous Version | Text Only | Print | Product List | Glossary Off
Versions: 1 2 3 4 5 6 7 8 9 10 11 12 13 14 15 16 17 18 19 20 21 22 23 24 25 26 27 28 29 30 31 32 33 34

000
FTUS43 KLOT 241300 AAA
TAFORD
TAF AMD
KORD 241405Z 2414/2518 12008KT P6SM BKN015 BKN060
     FM241500 13009KT P6SM SCT020 SCT250
     FM242100 09010KT P6SM SCT025
     FM250100 13006KT P6SM FEW025
     FM251400 20007KT P6SM SCT250=

USA.gov is the U.S. government's official web portal to all federal, state and local government web resources and services.